createdAt,value
2023-02-06T00:01:20.623Z,103514.09
2023-02-06T00:03:47.272Z,103504.28
2023-02-06T00:06:14.020Z,103510.63
2023-02-06T00:08:40.853Z,103519.94
2023-02-06T00:11:09.763Z,103528.75
2023-02-06T00:13:37.008Z,103532.44
2023-02-06T00:16:04.146Z,103529.63
2023-02-06T00:18:31.449Z,103529.63
2023-02-06T00:20:58.034Z,103531.47
2023-02-06T00:23:24.627Z,103530.72
2023-02-06T00:25:51.251Z,103531.34
2023-02-06T00:28:17.860Z,103528.56
2023-02-06T00:30:47.273Z,103524.78
2023-02-06T00:33:13.953Z,103521.09
2023-02-06T00:35:40.632Z,103517.56
2023-02-06T00:38:09.657Z,103522.81
2023-02-06T00:40:36.503Z,103520.25
2023-02-06T00:43:03.135Z,103530.91
2023-02-06T00:45:29.721Z,103525.63
2023-02-06T00:47:56.380Z,103534.59
2023-02-06T00:50:23.133Z,103537.19
2023-02-06T00:52:49.725Z,103539.97
2023-02-06T00:55:16.441Z,103534.59
2023-02-06T00:57:43.025Z,103533.63
2023-02-06T01:00:10.472Z,103542.56
2023-02-06T01:02:37.128Z,103542.56
2023-02-06T01:05:03.885Z,103550.53
2023-02-06T01:07:30.577Z,103556.06
2023-02-06T01:09:57.177Z,103555.06
2023-02-06T01:12:23.950Z,103548.81
2023-02-06T01:14:50.649Z,103545.38
2023-02-06T01:17:17.260Z,103554.31
2023-02-06T01:19:43.854Z,103557.88
2023-02-06T01:22:10.428Z,103549.06
2023-02-06T01:24:37.019Z,103558.00
2023-02-06T01:27:03.820Z,103567.19
2023-02-06T01:29:30.397Z,103567.25
2023-02-06T01:31:56.978Z,103565.47
2023-02-06T01:34:23.538Z,103564.69
2023-02-06T01:36:50.181Z,103557.69
2023-02-06T01:39:16.876Z,103560.47
2023-02-06T01:41:43.492Z,103558.53
2023-02-06T01:44:15.794Z,103549.59
2023-02-06T01:46:45.414Z,103549.69
2023-02-06T01:49:35.236Z,103543.22
2023-02-06T01:52:17.288Z,103530.47
2023-02-06T01:54:48.701Z,103528.88
2023-02-06T01:57:16.903Z,103522.63
2023-02-06T01:59:49.496Z,103525.19
2023-02-06T02:02:16.291Z,103518.09
2023-02-06T02:04:43.866Z,103517.88
2023-02-06T02:07:19.787Z,103508.91
2023-02-06T02:09:46.387Z,103503.75
2023-02-06T02:12:13.685Z,103500.06
2023-02-06T02:14:43.162Z,103499.09
2023-02-06T02:17:38.785Z,103494.56
2023-02-06T02:20:43.791Z,103489.19
2023-02-06T02:23:34.983Z,103487.56
2023-02-06T02:26:24.640Z,103491.25
2023-02-06T02:29:33.068Z,103487.69
2023-02-06T02:32:21.366Z,103487.91
2023-02-06T02:35:09.571Z,103471.50
2023-02-06T02:37:42.655Z,103473.34
2023-02-06T02:40:27.758Z,103471.16
2023-02-06T02:43:22.278Z,103460.59
2023-02-06T02:45:59.381Z,103452.19
2023-02-06T02:48:30.831Z,103447.16
2023-02-06T02:50:59.898Z,103443.72
2023-02-06T02:53:27.793Z,103440.88
2023-02-06T02:55:54.675Z,103446.97
2023-02-06T02:58:26.058Z,103451.31
2023-02-06T03:01:02.354Z,103445.81
2023-02-06T03:03:32.485Z,103440.44
2023-02-06T03:06:11.188Z,103446.44
2023-02-06T03:08:55.600Z,103454.22
2023-02-06T03:11:23.064Z,103450.56
2023-02-06T03:14:23.425Z,103456.94
2023-02-06T03:17:04.998Z,103456.47
2023-02-06T03:19:41.193Z,103445.78
2023-02-06T03:22:07.895Z,103452.66
2023-02-06T03:24:39.896Z,103452.66
2023-02-06T03:27:14.085Z,103440.53
2023-02-06T03:29:43.011Z,103436.59
2023-02-06T03:32:24.891Z,103433.88
2023-02-06T03:35:08.097Z,103429.94
2023-02-06T03:37:36.145Z,103422.94
2023-02-06T03:40:04.327Z,103414.47
2023-02-06T03:42:33.844Z,103428.72
2023-02-06T03:45:06.427Z,103431.91
2023-02-06T03:47:37.058Z,103427.13
2023-02-06T03:50:04.517Z,103421.81
2023-02-06T03:52:37.416Z,103429.19
2023-02-06T03:55:11.643Z,103431.44
2023-02-06T03:57:40.757Z,103441.25
2023-02-06T04:00:08.183Z,103447.38
2023-02-06T04:02:36.673Z,103454.75
2023-02-06T04:05:03.717Z,103454.78
2023-02-06T04:07:33.232Z,103449.09
2023-02-06T04:10:00.193Z,103454.81
2023-02-06T04:12:28.015Z,103445.31
2023-02-06T04:14:54.888Z,103456.34
2023-02-06T04:17:40.766Z,103449.69
2023-02-06T04:20:09.531Z,103472.00
2023-02-06T04:22:36.489Z,103461.66
2023-02-06T04:25:03.404Z,103449.13
2023-02-06T04:27:30.389Z,103444.59
2023-02-06T04:29:57.103Z,103450.84
2023-02-06T04:32:24.465Z,103447.06
2023-02-06T04:34:51.200Z,103450.59
2023-02-06T04:37:18.184Z,103437.34
2023-02-06T04:39:44.976Z,103423.75
2023-02-06T04:42:11.593Z,103421.03
2023-02-06T04:44:38.540Z,103417.34
2023-02-06T04:47:05.757Z,103422.88
2023-02-06T04:49:32.397Z,103414.03
2023-02-06T04:51:59.150Z,103404.09
2023-02-06T04:54:25.730Z,103403.50
2023-02-06T04:56:52.409Z,103401.03
2023-02-06T04:59:19.098Z,103401.91
2023-02-06T05:01:45.779Z,103403.94
2023-02-06T05:04:12.415Z,103402.34
2023-02-06T05:06:39.059Z,103411.53
2023-02-06T05:09:06.453Z,103408.22
2023-02-06T05:11:33.114Z,103412.00
2023-02-06T05:13:59.754Z,103405.81
2023-02-06T05:16:26.545Z,103411.22
2023-02-06T05:18:55.308Z,103397.84
2023-02-06T05:21:22.415Z,103400.66
2023-02-06T05:23:49.109Z,103399.94
2023-02-06T05:26:16.047Z,103401.78
2023-02-06T05:28:42.831Z,103407.28
2023-02-06T05:31:09.768Z,103406.50
2023-02-06T05:33:36.388Z,103411.53
2023-02-06T05:36:07.228Z,103409.56
2023-02-06T05:38:34.237Z,103406.13
2023-02-06T05:41:01.048Z,103398.38
2023-02-06T05:43:27.617Z,103409.56
2023-02-06T05:45:54.218Z,103421.69
2023-02-06T05:48:20.843Z,103416.31
2023-02-06T05:50:50.313Z,103417.38
2023-02-06T05:53:17.755Z,103409.28
2023-02-06T05:55:44.396Z,103406.38
2023-02-06T05:58:11.130Z,103402.16
2023-02-06T06:00:37.705Z,103407.56
2023-02-06T06:03:04.415Z,103411.13
2023-02-06T06:05:30.972Z,103416.75
2023-02-06T06:07:58.253Z,103420.72
2023-02-06T06:10:31.432Z,103416.31
2023-02-06T06:13:01.309Z,103424.47
2023-02-06T06:15:31.132Z,103434.22
2023-02-06T06:18:05.260Z,103423.63
2023-02-06T06:20:39.671Z,103433.56
2023-02-06T06:23:10.466Z,103432.81
2023-02-06T06:25:41.607Z,103434.41
2023-02-06T06:28:14.774Z,103436.59
2023-02-06T06:30:48.820Z,103447.28
2023-02-06T06:33:26.736Z,103451.81
2023-02-06T06:35:56.143Z,103440.91
2023-02-06T06:38:26.461Z,103440.28
2023-02-06T06:40:55.033Z,103439.19
2023-02-06T06:43:21.969Z,103445.31
2023-02-06T06:45:54.721Z,103437.09
2023-02-06T06:48:21.652Z,103431.94
2023-02-06T06:50:51.523Z,103431.91
2023-02-06T06:53:18.885Z,103437.72
2023-02-06T06:55:45.499Z,103436.50
2023-02-06T06:58:12.066Z,103436.59
2023-02-06T07:00:39.957Z,103440.91
2023-02-06T07:03:07.131Z,103443.47
2023-02-06T07:05:35.036Z,103439.19
2023-02-06T07:08:01.802Z,103431.94
2023-02-06T07:10:28.442Z,103427.53
2023-02-06T07:12:56.560Z,103425.81
2023-02-06T07:15:23.603Z,103427.66
2023-02-06T07:17:50.196Z,103435.00
2023-02-06T07:20:16.937Z,103431.09
2023-02-06T07:22:43.601Z,103423.72
2023-02-06T07:25:10.229Z,103427.00
2023-02-06T07:27:36.802Z,103428.72
2023-02-06T07:30:06.154Z,103420.75
2023-02-06T07:32:36.026Z,103409.22
2023-02-06T07:35:02.901Z,103412.84
2023-02-06T07:37:29.578Z,103409.94
2023-02-06T07:39:56.271Z,103415.09
2023-02-06T07:42:22.933Z,103415.22
2023-02-06T07:44:49.545Z,103418.16
2023-02-06T07:47:16.635Z,103414.47
2023-02-06T07:49:43.245Z,103416.41
2023-02-06T07:52:09.838Z,103412.78
2023-02-06T07:54:36.438Z,103408.31
2023-02-06T07:57:03.042Z,103418.34
2023-02-06T07:59:29.742Z,103415.88
2023-02-06T08:01:56.371Z,103425.56
2023-02-06T08:04:22.990Z,103428.41
2023-02-06T08:06:49.630Z,103430.22
2023-02-06T08:09:17.534Z,103435.88
2023-02-06T08:11:44.536Z,103447.84
2023-02-06T08:14:11.547Z,103430.78
2023-02-06T08:16:39.403Z,103426.50
2023-02-06T08:19:06.957Z,103427.47
2023-02-06T08:21:33.596Z,103420.00
2023-02-06T08:24:00.992Z,103418.53
2023-02-06T08:26:29.739Z,103417.53
2023-02-06T08:28:57.957Z,103414.72
2023-02-06T08:31:31.571Z,103410.97
2023-02-06T08:33:58.279Z,103402.75
2023-02-06T08:36:25.776Z,103398.94
2023-02-06T08:38:53.181Z,103408.66
2023-02-06T08:41:25.836Z,103415.13
2023-02-06T08:43:58.399Z,103417.31
2023-02-06T08:46:28.501Z,103415.59
2023-02-06T08:48:56.765Z,103414.72
2023-02-06T08:51:23.471Z,103428.34
2023-02-06T08:53:50.044Z,103424.66
2023-02-06T08:56:16.633Z,103420.47
2023-02-06T08:58:43.284Z,103420.25
2023-02-06T09:01:19.493Z,103412.16
2023-02-06T09:03:47.368Z,103415.59
2023-02-06T09:06:15.085Z,103408.47
2023-02-06T09:08:42.569Z,103409.13
2023-02-06T09:11:18.484Z,103417.72
2023-02-06T09:13:49.936Z,103413.41
2023-02-06T09:16:20.467Z,103418.81
2023-02-06T09:18:48.266Z,103422.25
2023-02-06T09:21:17.305Z,103429.06
2023-02-06T09:23:49.016Z,103430.78
2023-02-06T09:26:19.149Z,103436.44
2023-02-06T09:28:45.774Z,103431.91
2023-02-06T09:31:12.553Z,103437.06
2023-02-06T09:33:40.094Z,103444.53
2023-02-06T09:36:11.245Z,103441.72
2023-02-06T09:38:43.214Z,103441.09
2023-02-06T09:42:08.777Z,103452.97
2023-02-06T09:44:35.344Z,103443.16
2023-02-06T09:47:09.502Z,103452.00
2023-02-06T09:49:40.552Z,103456.84
2023-02-06T09:52:20.273Z,103455.13
2023-02-06T09:55:01.622Z,103462.38
2023-02-06T09:58:06.331Z,103463.09
2023-02-06T10:00:45.028Z,103467.75
2023-02-06T10:03:29.106Z,103457.19
2023-02-06T10:06:02.846Z,103466.03
2023-02-06T10:08:38.156Z,103478.03
2023-02-06T10:11:15.990Z,103466.38
2023-02-06T10:13:51.821Z,103485.16
2023-02-06T10:16:33.102Z,103484.41
2023-02-06T10:19:05.495Z,103494.97
2023-02-06T10:21:42.762Z,103500.13
2023-02-06T10:24:31.997Z,103505.09
2023-02-06T10:27:03.076Z,103512.72
2023-02-06T10:29:34.839Z,103504.63
2023-02-06T10:32:13.081Z,103520.06
2023-02-06T10:34:45.456Z,103500.19
2023-02-06T10:37:24.305Z,103490.06
2023-02-06T10:40:02.110Z,103481.00
2023-02-06T10:42:49.225Z,103488.66
2023-02-06T10:45:40.066Z,103486.09
2023-02-06T10:48:24.912Z,103470.88
2023-02-06T10:50:58.216Z,103470.25
2023-02-06T10:53:35.364Z,103462.66
2023-02-06T10:56:06.931Z,103447.97
2023-02-06T10:58:40.640Z,103446.91
2023-02-06T11:01:24.761Z,103455.31
2023-02-06T11:04:12.309Z,103465.53
2023-02-06T11:06:42.542Z,103467.63
2023-02-06T11:09:10.324Z,103463.09
2023-02-06T11:11:40.624Z,103469.34
2023-02-06T11:14:18.632Z,103460.47
2023-02-06T11:16:46.900Z,103448.81
2023-02-06T11:19:30.949Z,103453.91
2023-02-06T11:22:12.672Z,103454.00
2023-02-06T11:24:59.692Z,103458.94
2023-02-06T11:27:27.686Z,103466.41
2023-02-06T11:29:54.580Z,103467.50
2023-02-06T11:32:38.032Z,103450.34
2023-02-06T11:35:28.240Z,103457.44
2023-02-06T11:38:05.938Z,103465.25
2023-02-06T11:40:32.527Z,103454.41
2023-02-06T11:43:22.020Z,103461.28
2023-02-06T11:45:52.307Z,103454.16
2023-02-06T11:48:43.839Z,103473.66
2023-02-06T11:51:11.776Z,103474.66
2023-02-06T11:53:39.003Z,103475.50
2023-02-06T11:56:14.836Z,103475.63
2023-02-06T11:58:41.443Z,103479.19
2023-02-06T12:01:18.019Z,103477.47
2023-02-06T12:03:50.566Z,103468.38
2023-02-06T12:06:34.901Z,103461.41
2023-02-06T12:09:05.922Z,103460.63
2023-02-06T12:11:57.850Z,103458.69
2023-02-06T12:14:39.750Z,103474.75
2023-02-06T12:17:22.389Z,103460.50
2023-02-06T12:19:56.717Z,103460.63
2023-02-06T12:22:24.830Z,103464.28
2023-02-06T12:24:55.184Z,103464.53
2023-02-06T12:27:39.145Z,103459.44
2023-02-06T12:30:20.871Z,103459.56
2023-02-06T12:32:53.712Z,103464.34
2023-02-06T12:35:49.565Z,103467.06
2023-02-06T12:38:55.741Z,103465.81
2023-02-06T12:41:28.306Z,103460.84
2023-02-06T12:44:18.357Z,103456.09
2023-02-06T12:46:47.510Z,103464.53
2023-02-06T12:49:23.557Z,103460.47
2023-02-06T12:51:55.391Z,103467.69
2023-02-06T12:54:28.416Z,103473.06
2023-02-06T12:57:04.906Z,103466.50
2023-02-06T12:59:58.063Z,103465.81
2023-02-06T13:02:39.939Z,103460.41
2023-02-06T13:05:28.071Z,103475.63
2023-02-06T13:08:02.742Z,103475.50
2023-02-06T13:10:29.428Z,103465.31
2023-02-06T13:12:58.599Z,103463.84
2023-02-06T13:15:36.225Z,103467.53
2023-02-06T13:18:03.191Z,103475.94
2023-02-06T13:20:31.838Z,103475.09
2023-02-06T13:23:11.581Z,103473.13
2023-02-06T13:25:38.359Z,103481.22
2023-02-06T13:28:23.397Z,103477.19
2023-02-06T13:31:00.564Z,103488.31
2023-02-06T13:33:58.333Z,103491.44
2023-02-06T13:36:26.937Z,103488.84
2023-02-06T13:39:12.594Z,103497.50
2023-02-06T13:41:42.267Z,103490.38
2023-02-06T13:44:19.933Z,103492.28
2023-02-06T13:47:24.116Z,103490.81
2023-02-06T13:49:53.809Z,103487.28
2023-02-06T13:52:32.960Z,103495.28
2023-02-06T13:55:23.234Z,103491.53
2023-02-06T13:58:05.882Z,103495.78
2023-02-06T14:00:38.279Z,103497.28
2023-02-06T14:03:23.709Z,103498.28
2023-02-06T14:06:27.906Z,103505.63
2023-02-06T14:09:43.891Z,103507.34
2023-02-06T14:12:38.884Z,103510.69
2023-02-06T14:15:16.560Z,103521.50
2023-02-06T14:17:45.132Z,103523.09
2023-02-06T14:20:37.888Z,103531.94
2023-02-06T14:23:38.986Z,103529.38
2023-02-06T14:26:26.757Z,103524.22
2023-02-06T14:28:59.413Z,103524.41
2023-02-06T14:31:26.800Z,103523.19
2023-02-06T14:34:21.154Z,103531.06
2023-02-06T14:37:36.241Z,103530.47
2023-02-06T14:40:10.419Z,103536.88
2023-02-06T14:42:43.237Z,103541.16
2023-02-06T14:45:24.711Z,103547.69
2023-02-06T14:47:52.778Z,103550.75
2023-02-06T14:50:25.006Z,103564.41
2023-02-06T14:52:58.527Z,103568.72
2023-02-06T14:55:32.609Z,103565.91
2023-02-06T14:57:59.577Z,103570.97
2023-02-06T15:00:27.310Z,103578.56
2023-02-06T15:03:05.986Z,103586.06
2023-02-06T15:05:33.347Z,103587.50
2023-02-06T15:08:02.151Z,103593.28
2023-02-06T15:10:34.124Z,103597.88
2023-02-06T15:13:01.032Z,103606.44
2023-02-06T15:15:30.308Z,103600.84
2023-02-06T15:17:56.884Z,103609.44
2023-02-06T15:20:43.326Z,103602.00
2023-02-06T15:23:26.838Z,103604.63
2023-02-06T15:25:59.356Z,103608.84
2023-02-06T15:28:31.512Z,103613.47
2023-02-06T15:31:00.730Z,103619.88
2023-02-06T15:33:31.198Z,103621.91
2023-02-06T15:36:00.557Z,103621.59
2023-02-06T15:38:29.599Z,103617.91
2023-02-06T15:41:00.434Z,103624.91
2023-02-06T15:43:28.018Z,103628.06
2023-02-06T15:45:57.755Z,103628.91
2023-02-06T15:48:30.864Z,103629.38
2023-02-06T15:51:00.639Z,103630.00
2023-02-06T15:53:42.590Z,103636.00
2023-02-06T15:56:24.129Z,103631.66
2023-02-06T15:58:58.138Z,103647.25
2023-02-06T16:01:26.569Z,103652.13
2023-02-06T16:03:57.984Z,103647.50
2023-02-06T16:06:24.752Z,103636.59
2023-02-06T16:09:02.885Z,103643.16
2023-02-06T16:11:47.769Z,103643.94
2023-02-06T16:14:23.398Z,103634.31
2023-02-06T16:16:58.787Z,103643.28
2023-02-06T16:19:38.904Z,103661.66
2023-02-06T16:22:27.009Z,103658.34
2023-02-06T16:25:12.792Z,103662.06
2023-02-06T16:27:45.223Z,103661.19
2023-02-06T16:30:26.655Z,103665.22
2023-02-06T16:32:55.468Z,103668.13
2023-02-06T16:35:23.345Z,103673.53
2023-02-06T16:37:51.152Z,103677.06
2023-02-06T16:40:18.452Z,103672.88
2023-02-06T16:42:47.508Z,103676.44
2023-02-06T16:45:23.420Z,103668.78
2023-02-06T16:47:50.368Z,103669.19
2023-02-06T16:50:17.208Z,103672.66
2023-02-06T16:52:55.277Z,103667.06
2023-02-06T16:55:24.385Z,103680.09
2023-02-06T16:57:55.118Z,103678.50
2023-02-06T17:00:31.445Z,103671.56
2023-02-06T17:02:59.088Z,103675.69
2023-02-06T17:05:27.514Z,103665.75
2023-02-06T17:07:55.058Z,103671.03
2023-02-06T17:10:25.168Z,103676.75
2023-02-06T17:12:52.223Z,103689.28
2023-02-06T17:15:19.723Z,103694.97
2023-02-06T17:17:47.124Z,103705.69
2023-02-06T17:20:38.478Z,103708.69
2023-02-06T17:23:05.449Z,103698.41
2023-02-06T17:25:32.863Z,103702.75
2023-02-06T17:28:01.639Z,103713.09
2023-02-06T17:30:28.510Z,103703.91
2023-02-06T17:32:56.264Z,103704.78
2023-02-06T17:35:23.063Z,103715.06
2023-02-06T17:37:51.416Z,103717.34
2023-02-06T17:40:27.518Z,103715.63
2023-02-06T17:42:54.458Z,103714.84
2023-02-06T17:45:21.075Z,103711.09
2023-02-06T17:47:47.737Z,103717.22
2023-02-06T17:50:20.249Z,103722.41
2023-02-06T17:52:48.643Z,103725.31
2023-02-06T17:55:16.291Z,103732.66
2023-02-06T17:57:43.476Z,103735.25
2023-02-06T18:00:14.724Z,103722.91
2023-02-06T18:02:41.457Z,103739.66
2023-02-06T18:05:08.923Z,103731.88
2023-02-06T18:07:37.926Z,103731.00
2023-02-06T18:10:05.514Z,103733.72
2023-02-06T18:12:32.186Z,103729.41
2023-02-06T18:14:59.014Z,103729.41
2023-02-06T18:17:25.929Z,103724.75
2023-02-06T18:19:52.623Z,103728.44
2023-02-06T18:22:21.531Z,103736.75
2023-02-06T18:24:49.385Z,103740.06
2023-02-06T18:27:16.580Z,103744.72
2023-02-06T18:29:50.522Z,103745.81
2023-02-06T18:32:18.821Z,103749.25
2023-02-06T18:34:45.673Z,103739.31
2023-02-06T18:37:12.274Z,103732.09
2023-02-06T18:39:39.572Z,103729.50
2023-02-06T18:42:25.389Z,103724.00
2023-02-06T18:44:52.259Z,103734.16
2023-02-06T18:47:19.788Z,103734.16
2023-02-06T18:49:46.760Z,103739.53
2023-02-06T18:52:14.128Z,103744.94
2023-02-06T18:54:40.739Z,103751.31
2023-02-06T18:57:07.331Z,103754.66
2023-02-06T18:59:34.708Z,103753.78
2023-02-06T19:02:01.891Z,103746.66
2023-02-06T19:04:28.525Z,103741.38
2023-02-06T19:06:55.141Z,103739.75
2023-02-06T19:09:21.777Z,103749.69
2023-02-06T19:11:48.526Z,103759.63
2023-02-06T19:14:17.013Z,103741.59
2023-02-06T19:16:48.042Z,103730.81
2023-02-06T19:19:14.915Z,103732.66
2023-02-06T19:21:43.250Z,103736.28
2023-02-06T19:24:15.484Z,103750.56
2023-02-06T19:26:42.223Z,103754.41
2023-02-06T19:29:09.501Z,103745.34
2023-02-06T19:31:39.097Z,103745.16
2023-02-06T19:34:06.588Z,103747.63
2023-02-06T19:36:33.226Z,103756.47
2023-02-06T19:39:02.427Z,103761.00
2023-02-06T19:41:31.196Z,103755.63
2023-02-06T19:44:01.308Z,103773.63
2023-02-06T19:46:27.990Z,103771.91
2023-02-06T19:48:55.715Z,103781.06
2023-02-06T19:51:29.486Z,103773.97
2023-02-06T19:53:57.612Z,103776.84
2023-02-06T19:56:27.273Z,103781.47
2023-02-06T19:58:58.994Z,103757.97
2023-02-06T20:01:26.768Z,103758.06
2023-02-06T20:03:53.391Z,103766.16
2023-02-06T20:06:21.328Z,103774.34
2023-02-06T20:08:48.190Z,103771.56
2023-02-06T20:11:17.752Z,103757.22
2023-02-06T20:13:46.113Z,103764.53
2023-02-06T20:16:24.190Z,103783.53
2023-02-06T20:18:50.960Z,103791.63
2023-02-06T20:21:31.272Z,103790.66
2023-02-06T20:24:00.479Z,103783.53
2023-02-06T20:26:31.827Z,103786.13
2023-02-06T20:28:59.436Z,103793.13
2023-02-06T20:31:26.635Z,103792.16
2023-02-06T20:33:53.652Z,103800.25
2023-02-06T20:36:23.510Z,103806.59
2023-02-06T20:38:52.552Z,103796.69
2023-02-06T20:41:22.137Z,103795.81
2023-02-06T20:43:48.732Z,103802.94
2023-02-06T20:46:17.298Z,103811.03
2023-02-06T20:48:45.920Z,103799.50
2023-02-06T20:51:14.092Z,103806.72
2023-02-06T20:53:41.252Z,103817.59
2023-02-06T20:56:14.539Z,103808.66
2023-02-06T20:58:41.962Z,103803.91
2023-02-06T21:01:23.163Z,103804.66
2023-02-06T21:03:51.883Z,103803.16
2023-02-06T21:06:18.679Z,103798.41
2023-02-06T21:08:47.141Z,103795.06
2023-02-06T21:11:14.143Z,103795.94
2023-02-06T21:13:41.416Z,103800.47
2023-02-06T21:16:09.259Z,103799.72
2023-02-06T21:18:36.351Z,103808.75
2023-02-06T21:21:09.484Z,103806.81
2023-02-06T21:23:40.451Z,103809.53
2023-02-06T21:26:08.375Z,103813.47
2023-02-06T21:28:37.060Z,103819.56
2023-02-06T21:31:09.729Z,103821.78
2023-02-06T21:33:37.161Z,103823.41
2023-02-06T21:36:06.942Z,103829.66
2023-02-06T21:38:35.025Z,103829.66
2023-02-06T21:41:10.097Z,103828.72
2023-02-06T21:43:36.842Z,103823.41
2023-02-06T21:46:03.714Z,103812.53
2023-02-06T21:48:30.829Z,103815.13
2023-02-06T21:50:57.762Z,103821.28
2023-02-06T21:53:24.517Z,103818.88
2023-02-06T21:55:51.177Z,103831.31
2023-02-06T21:58:17.924Z,103847.59
2023-02-06T22:00:47.487Z,103837.75
2023-02-06T22:03:14.978Z,103834.19
2023-02-06T22:05:41.717Z,103827.06
2023-02-06T22:08:08.321Z,103826.19
2023-02-06T22:10:36.965Z,103835.16
2023-02-06T22:13:04.920Z,103836.13
2023-02-06T22:15:32.197Z,103837.84
2023-02-06T22:17:58.793Z,103838.81
2023-02-06T22:20:25.366Z,103837.09
2023-02-06T22:22:53.406Z,103840.53
2023-02-06T22:25:20.355Z,103845.81
2023-02-06T22:27:47.073Z,103851.31
2023-02-06T22:30:14.101Z,103845.81
2023-02-06T22:32:40.825Z,103836.00
2023-02-06T22:35:07.618Z,103831.91
2023-02-06T22:37:34.608Z,103831.06
2023-02-06T22:40:01.186Z,103832.88
2023-02-06T22:42:27.794Z,103824.91
2023-02-06T22:44:54.515Z,103825.56
2023-02-06T22:47:21.112Z,103827.50
2023-02-06T22:49:50.631Z,103829.00
2023-02-06T22:52:35.697Z,103836.22
2023-02-06T22:55:04.219Z,103841.94
2023-02-06T22:57:30.904Z,103839.13
2023-02-06T22:59:57.491Z,103833.75
2023-02-06T23:02:24.074Z,103838.91
2023-02-06T23:04:50.664Z,103844.97
2023-02-06T23:07:17.260Z,103841.31
2023-02-06T23:09:44.108Z,103854.03
2023-02-06T23:12:11.677Z,103847.78
2023-02-06T23:14:38.413Z,103847.66
2023-02-06T23:17:05.067Z,103843.34
2023-02-06T23:19:31.981Z,103836.13
2023-02-06T23:21:58.561Z,103836.00
2023-02-06T23:24:25.155Z,103835.16
2023-02-06T23:26:53.696Z,103838.72
2023-02-06T23:29:22.173Z,103840.44
2023-02-06T23:31:49.179Z,103843.25
2023-02-06T23:34:17.663Z,103848.63
2023-02-06T23:36:44.602Z,103854.88
2023-02-06T23:39:12.021Z,103848.75
2023-02-06T23:41:38.894Z,103851.44
2023-02-06T23:44:07.073Z,103852.31
2023-02-06T23:46:36.240Z,103848.84
2023-02-06T23:49:03.343Z,103849.81
2023-02-06T23:51:29.989Z,103852.50
2023-02-06T23:53:56.608Z,103856.16
2023-02-06T23:56:28.684Z,103862.13
2023-02-06T23:58:57.028Z,103870.81
